sensor_id;sensor_type;location;lat;lon;timestamp;temperature;humidity
16038;DHT22;8123;50.906;6.172;2024-03-08T00:01:53;4.50;1.00
16038;DHT22;8123;50.906;6.172;2024-03-08T00:04:19;4.50;1.00
16038;DHT22;8123;50.906;6.172;2024-03-08T00:06:44;4.50;1.00
16038;DHT22;8123;50.906;6.172;2024-03-08T00:09:12;4.40;1.00
16038;DHT22;8123;50.906;6.172;2024-03-08T00:11:37;4.40;1.00
16038;DHT22;8123;50.906;6.172;2024-03-08T00:14:03;4.40;1.00
16038;DHT22;8123;50.906;6.172;2024-03-08T00:16:32;4.30;1.00
16038;DHT22;8123;50.906;6.172;2024-03-08T00:18:58;4.30;1.00
16038;DHT22;8123;50.906;6.172;2024-03-08T00:21:24;4.30;1.00
16038;DHT22;8123;50.906;6.172;2024-03-08T00:23:49;4.30;1.00
16038;DHT22;8123;50.906;6.172;2024-03-08T00:26:15;4.30;1.00
16038;DHT22;8123;50.906;6.172;2024-03-08T00:28:40;4.20;1.00
16038;DHT22;8123;50.906;6.172;2024-03-08T00:31:06;4.10;1.00
16038;DHT22;8123;50.906;6.172;2024-03-08T00:33:32;4.10;1.00
16038;DHT22;8123;50.906;6.172;2024-03-08T00:35:58;4.10;1.00
16038;DHT22;8123;50.906;6.172;2024-03-08T00:38:24;4.40;1.00
16038;DHT22;8123;50.906;6.172;2024-03-08T00:40:49;4.30;1.00
16038;DHT22;8123;50.906;6.172;2024-03-08T00:43:15;4.10;1.00
16038;DHT22;8123;50.906;6.172;2024-03-08T00:45:41;4.10;1.00
16038;DHT22;8123;50.906;6.172;2024-03-08T00:48:09;4.00;1.00
16038;DHT22;8123;50.906;6.172;2024-03-08T00:50:36;4.00;1.00
16038;DHT22;8123;50.906;6.172;2024-03-08T00:53:02;4.00;1.00
16038;DHT22;8123;50.906;6.172;2024-03-08T00:55:28;4.00;1.00
16038;DHT22;8123;50.906;6.172;2024-03-08T00:57:55;4.00;1.00
16038;DHT22;8123;50.906;6.172;2024-03-08T01:00:20;3.90;1.00
16038;DHT22;8123;50.906;6.172;2024-03-08T01:02:47;3.90;1.00
16038;DHT22;8123;50.906;6.172;2024-03-08T01:05:13;3.90;1.00
16038;DHT22;8123;50.906;6.172;2024-03-08T01:07:39;3.90;1.00
16038;DHT22;8123;50.906;6.172;2024-03-08T01:10:05;3.90;1.00
16038;DHT22;8123;50.906;6.172;2024-03-08T01:12:39;3.90;1.00
16038;DHT22;8123;50.906;6.172;2024-03-08T01:15:05;3.80;1.00
16038;DHT22;8123;50.906;6.172;2024-03-08T01:17:31;3.80;4.50
16038;DHT22;8123;50.906;6.172;2024-03-08T01:19:57;4.00;20.10
16038;DHT22;8123;50.906;6.172;2024-03-08T01:22:23;3.90;32.70
16038;DHT22;8123;50.906;6.172;2024-03-08T01:24:49;3.70;29.50
16038;DHT22;8123;50.906;6.172;2024-03-08T01:27:15;3.70;1.00
16038;DHT22;8123;50.906;6.172;2024-03-08T01:29:40;3.70;39.90
16038;DHT22;8123;50.906;6.172;2024-03-08T01:32:06;4.00;38.60
16038;DHT22;8123;50.906;6.172;2024-03-08T01:34:32;3.60;76.60
16038;DHT22;8123;50.906;6.172;2024-03-08T01:36:58;3.80;99.90
16038;DHT22;8123;50.906;6.172;2024-03-08T01:39:24;3.60;99.90
16038;DHT22;8123;50.906;6.172;2024-03-08T01:41:50;3.60;99.90
16038;DHT22;8123;50.906;6.172;2024-03-08T01:44:16;3.60;99.90
16038;DHT22;8123;50.906;6.172;2024-03-08T01:46:46;3.80;99.90
16038;DHT22;8123;50.906;6.172;2024-03-08T01:49:14;3.50;75.30
16038;DHT22;8123;50.906;6.172;2024-03-08T01:51:41;3.50;99.90
16038;DHT22;8123;50.906;6.172;2024-03-08T01:54:07;3.50;99.90
16038;DHT22;8123;50.906;6.172;2024-03-08T01:56:36;3.40;99.90
16038;DHT22;8123;50.906;6.172;2024-03-08T01:59:03;3.50;99.90
16038;DHT22;8123;50.906;6.172;2024-03-08T02:01:29;3.40;99.90
16038;DHT22;8123;50.906;6.172;2024-03-08T02:03:54;3.30;99.90
16038;DHT22;8123;50.906;6.172;2024-03-08T02:06:20;3.30;99.90
16038;DHT22;8123;50.906;6.172;2024-03-08T02:08:46;3.30;99.90
16038;DHT22;8123;50.906;6.172;2024-03-08T02:11:12;3.30;99.90
16038;DHT22;8123;50.906;6.172;2024-03-08T02:13:38;3.40;99.90
16038;DHT22;8123;50.906;6.172;2024-03-08T02:16:04;3.40;99.90
16038;DHT22;8123;50.906;6.172;2024-03-08T02:18:34;3.40;99.90
16038;DHT22;8123;50.906;6.172;2024-03-08T02:21:06;3.30;99.90
16038;DHT22;8123;50.906;6.172;2024-03-08T02:23:32;3.30;99.90
16038;DHT22;8123;50.906;6.172;2024-03-08T02:25:58;3.40;99.90
16038;DHT22;8123;50.906;6.172;2024-03-08T02:28:24;3.30;99.90
16038;DHT22;8123;50.906;6.172;2024-03-08T02:30:54;3.20;99.90
16038;DHT22;8123;50.906;6.172;2024-03-08T02:33:21;3.20;99.90
16038;DHT22;8123;50.906;6.172;2024-03-08T02:35:48;3.20;99.90
16038;DHT22;8123;50.906;6.172;2024-03-08T02:38:19;3.20;99.90
16038;DHT22;8123;50.906;6.172;2024-03-08T02:40:52;3.20;99.90
16038;DHT22;8123;50.906;6.172;2024-03-08T02:43:19;3.10;99.90
16038;DHT22;8123;50.906;6.172;2024-03-08T02:45:45;3.10;99.90
16038;DHT22;8123;50.906;6.172;2024-03-08T02:48:11;3.00;99.90
16038;DHT22;8123;50.906;6.172;2024-03-08T02:50:37;3.10;1.00
16038;DHT22;8123;50.906;6.172;2024-03-08T02:53:06;3.10;99.90
16038;DHT22;8123;50.906;6.172;2024-03-08T02:55:32;3.00;99.90
16038;DHT22;8123;50.906;6.172;2024-03-08T02:58:03;3.00;1.00
16038;DHT22;8123;50.906;6.172;2024-03-08T03:00:30;2.90;1.00
16038;DHT22;8123;50.906;6.172;2024-03-08T03:02:58;2.80;1.00
16038;DHT22;8123;50.906;6.172;2024-03-08T03:05:24;2.80;1.00
16038;DHT22;8123;50.906;6.172;2024-03-08T03:07:51;2.80;1.00
16038;DHT22;8123;50.906;6.172;2024-03-08T03:10:17;2.90;1.00
16038;DHT22;8123;50.906;6.172;2024-03-08T03:12:43;3.00;1.00
16038;DHT22;8123;50.906;6.172;2024-03-08T03:15:11;3.00;1.00
16038;DHT22;8123;50.906;6.172;2024-03-08T03:17:37;2.90;1.00
16038;DHT22;8123;50.906;6.172;2024-03-08T03:20:05;3.00;1.00
16038;DHT22;8123;50.906;6.172;2024-03-08T03:22:36;2.90;1.00
16038;DHT22;8123;50.906;6.172;2024-03-08T03:25:03;2.90;1.00
16038;DHT22;8123;50.906;6.172;2024-03-08T03:27:29;2.90;1.00
16038;DHT22;8123;50.906;6.172;2024-03-08T03:29:56;2.80;1.00
16038;DHT22;8123;50.906;6.172;2024-03-08T03:32:23;2.90;1.00
16038;DHT22;8123;50.906;6.172;2024-03-08T03:34:49;2.90;1.00
16038;DHT22;8123;50.906;6.172;2024-03-08T03:37:21;2.90;1.00
16038;DHT22;8123;50.906;6.172;2024-03-08T03:39:47;2.80;1.00
16038;DHT22;8123;50.906;6.172;2024-03-08T03:42:18;2.80;1.00
16038;DHT22;8123;50.906;6.172;2024-03-08T03:44:48;2.80;1.00
16038;DHT22;8123;50.906;6.172;2024-03-08T03:47:15;2.80;1.00
16038;DHT22;8123;50.906;6.172;2024-03-08T03:49:41;2.80;1.00
16038;DHT22;8123;50.906;6.172;2024-03-08T03:52:07;2.80;1.00
16038;DHT22;8123;50.906;6.172;2024-03-08T03:54:32;2.80;1.00
16038;DHT22;8123;50.906;6.172;2024-03-08T03:56:59;2.80;1.00
16038;DHT22;8123;50.906;6.172;2024-03-08T03:59:26;2.80;1.00
16038;DHT22;8123;50.906;6.172;2024-03-08T04:01:53;2.80;1.00
16038;DHT22;8123;50.906;6.172;2024-03-08T04:04:18;2.70;1.00
16038;DHT22;8123;50.906;6.172;2024-03-08T04:06:44;2.70;1.00
16038;DHT22;8123;50.906;6.172;2024-03-08T04:09:10;2.70;1.00
16038;DHT22;8123;50.906;6.172;2024-03-08T04:11:38;2.70;1.00
16038;DHT22;8123;50.906;6.172;2024-03-08T04:14:03;2.70;1.00
16038;DHT22;8123;50.906;6.172;2024-03-08T04:16:30;2.60;1.00
16038;DHT22;8123;50.906;6.172;2024-03-08T04:18:57;2.60;1.00
16038;DHT22;8123;50.906;6.172;2024-03-08T04:21:23;2.60;1.00
16038;DHT22;8123;50.906;6.172;2024-03-08T04:23:48;2.50;1.00
16038;DHT22;8123;50.906;6.172;2024-03-08T04:26:14;2.60;4.60
16038;DHT22;8123;50.906;6.172;2024-03-08T04:28:39;2.60;1.00
16038;DHT22;8123;50.906;6.172;2024-03-08T04:31:05;2.60;1.00
16038;DHT22;8123;50.906;6.172;2024-03-08T04:33:32;2.50;1.00
16038;DHT22;8123;50.906;6.172;2024-03-08T04:35:58;2.50;58.40
16038;DHT22;8123;50.906;6.172;2024-03-08T04:38:23;2.40;99.90
16038;DHT22;8123;50.906;6.172;2024-03-08T04:40:50;2.40;99.90
16038;DHT22;8123;50.906;6.172;2024-03-08T04:43:16;2.40;99.90
16038;DHT22;8123;50.906;6.172;2024-03-08T04:45:44;2.50;99.90
16038;DHT22;8123;50.906;6.172;2024-03-08T04:48:09;2.50;99.90
16038;DHT22;8123;50.906;6.172;2024-03-08T04:50:37;2.50;91.10
16038;DHT22;8123;50.906;6.172;2024-03-08T04:53:03;2.50;99.90
16038;DHT22;8123;50.906;6.172;2024-03-08T04:55:30;2.40;99.90
16038;DHT22;8123;50.906;6.172;2024-03-08T04:57:55;2.40;99.90
16038;DHT22;8123;50.906;6.172;2024-03-08T05:00:21;2.40;99.90
16038;DHT22;8123;50.906;6.172;2024-03-08T05:02:46;2.40;99.90
16038;DHT22;8123;50.906;6.172;2024-03-08T05:05:12;2.40;99.90
16038;DHT22;8123;50.906;6.172;2024-03-08T05:07:41;2.40;99.90
16038;DHT22;8123;50.906;6.172;2024-03-08T05:10:09;2.40;99.90
16038;DHT22;8123;50.906;6.172;2024-03-08T05:12:34;2.40;99.90
16038;DHT22;8123;50.906;6.172;2024-03-08T05:15:00;2.40;99.90
16038;DHT22;8123;50.906;6.172;2024-03-08T05:17:25;2.40;99.90
16038;DHT22;8123;50.906;6.172;2024-03-08T05:19:51;2.30;99.90
16038;DHT22;8123;50.906;6.172;2024-03-08T05:22:17;2.30;99.90
16038;DHT22;8123;50.906;6.172;2024-03-08T05:24:44;2.30;99.90
16038;DHT22;8123;50.906;6.172;2024-03-08T05:27:09;2.30;99.90
16038;DHT22;8123;50.906;6.172;2024-03-08T05:29:35;2.20;99.90
16038;DHT22;8123;50.906;6.172;2024-03-08T05:32:01;2.30;99.90
16038;DHT22;8123;50.906;6.172;2024-03-08T05:34:28;2.30;99.90
16038;DHT22;8123;50.906;6.172;2024-03-08T05:36:54;2.30;99.90
16038;DHT22;8123;50.906;6.172;2024-03-08T05:39:20;2.30;99.90
16038;DHT22;8123;50.906;6.172;2024-03-08T05:41:46;2.30;99.90
16038;DHT22;8123;50.906;6.172;2024-03-08T05:44:13;2.30;99.90
16038;DHT22;8123;50.906;6.172;2024-03-08T05:46:39;2.30;99.90
16038;DHT22;8123;50.906;6.172;2024-03-08T05:49:06;2.30;99.90
16038;DHT22;8123;50.906;6.172;2024-03-08T05:51:32;2.20;99.90
16038;DHT22;8123;50.906;6.172;2024-03-08T05:54:03;2.20;99.90
16038;DHT22;8123;50.906;6.172;2024-03-08T05:56:33;2.20;99.90
16038;DHT22;8123;50.906;6.172;2024-03-08T05:58:58;2.20;99.90
16038;DHT22;8123;50.906;6.172;2024-03-08T06:01:25;2.10;99.90
16038;DHT22;8123;50.906;6.172;2024-03-08T06:03:54;2.10;99.90
16038;DHT22;8123;50.906;6.172;2024-03-08T06:06:24;2.10;99.90
16038;DHT22;8123;50.906;6.172;2024-03-08T06:08:50;2.10;99.90
16038;DHT22;8123;50.906;6.172;2024-03-08T06:11:16;2.00;99.90
16038;DHT22;8123;50.906;6.172;2024-03-08T06:13:48;2.00;99.90
16038;DHT22;8123;50.906;6.172;2024-03-08T06:16:15;2.10;1.00
16038;DHT22;8123;50.906;6.172;2024-03-08T06:18:41;2.10;99.90
16038;DHT22;8123;50.906;6.172;2024-03-08T06:21:07;2.10;99.90
16038;DHT22;8123;50.906;6.172;2024-03-08T06:23:35;2.00;1.00
16038;DHT22;8123;50.906;6.172;2024-03-08T06:26:07;2.20;99.90
16038;DHT22;8123;50.906;6.172;2024-03-08T06:28:32;2.20;99.90
16038;DHT22;8123;50.906;6.172;2024-03-08T06:30:58;2.20;99.90
16038;DHT22;8123;50.906;6.172;2024-03-08T06:33:24;2.30;99.90
16038;DHT22;8123;50.906;6.172;2024-03-08T06:35:52;2.30;99.90
16038;DHT22;8123;50.906;6.172;2024-03-08T06:38:18;2.30;99.90
16038;DHT22;8123;50.906;6.172;2024-03-08T06:40:44;2.30;99.90
16038;DHT22;8123;50.906;6.172;2024-03-08T06:43:13;2.40;99.90
16038;DHT22;8123;50.906;6.172;2024-03-08T06:45:47;2.40;99.90
16038;DHT22;8123;50.906;6.172;2024-03-08T06:48:16;2.40;99.90
16038;DHT22;8123;50.906;6.172;2024-03-08T06:50:46;2.40;41.60
16038;DHT22;8123;50.906;6.172;2024-03-08T06:53:12;2.50;72.00
16038;DHT22;8123;50.906;6.172;2024-03-08T06:55:39;2.60;52.90
16038;DHT22;8123;50.906;6.172;2024-03-08T06:58:05;2.60;55.30
16038;DHT22;8123;50.906;6.172;2024-03-08T07:00:32;2.60;53.30
16038;DHT22;8123;50.906;6.172;2024-03-08T07:02:58;2.70;1.00
16038;DHT22;8123;50.906;6.172;2024-03-08T07:05:27;2.70;1.00
16038;DHT22;8123;50.906;6.172;2024-03-08T07:07:53;2.70;1.00
16038;DHT22;8123;50.906;6.172;2024-03-08T07:10:23;2.70;1.00
16038;DHT22;8123;50.906;6.172;2024-03-08T07:12:50;2.80;1.00
16038;DHT22;8123;50.906;6.172;2024-03-08T07:15:16;2.90;1.00
16038;DHT22;8123;50.906;6.172;2024-03-08T07:17:41;2.90;1.00
16038;DHT22;8123;50.906;6.172;2024-03-08T07:20:10;2.90;1.00
16038;DHT22;8123;50.906;6.172;2024-03-08T07:22:38;2.90;1.00
16038;DHT22;8123;50.906;6.172;2024-03-08T07:25:07;3.00;1.00
16038;DHT22;8123;50.906;6.172;2024-03-08T07:27:33;3.00;1.00
16038;DHT22;8123;50.906;6.172;2024-03-08T07:30:00;3.10;1.00
16038;DHT22;8123;50.906;6.172;2024-03-08T07:32:26;3.10;1.00
16038;DHT22;8123;50.906;6.172;2024-03-08T07:34:55;3.10;99.90
16038;DHT22;8123;50.906;6.172;2024-03-08T07:37:21;3.20;99.90
16038;DHT22;8123;50.906;6.172;2024-03-08T07:39:47;3.20;99.90
16038;DHT22;8123;50.906;6.172;2024-03-08T07:42:13;3.30;1.00
16038;DHT22;8123;50.906;6.172;2024-03-08T07:44:38;3.30;99.90
16038;DHT22;8123;50.906;6.172;2024-03-08T07:47:04;3.40;99.90
16038;DHT22;8123;50.906;6.172;2024-03-08T07:49:30;3.40;99.90
16038;DHT22;8123;50.906;6.172;2024-03-08T07:51:56;3.50;99.90
16038;DHT22;8123;50.906;6.172;2024-03-08T07:54:23;3.50;99.90
16038;DHT22;8123;50.906;6.172;2024-03-08T07:56:48;3.50;99.90
16038;DHT22;8123;50.906;6.172;2024-03-08T07:59:16;3.60;99.90
16038;DHT22;8123;50.906;6.172;2024-03-08T08:01:42;3.70;99.90
16038;DHT22;8123;50.906;6.172;2024-03-08T08:04:09;3.70;99.90
16038;DHT22;8123;50.906;6.172;2024-03-08T08:06:38;3.80;99.90
16038;DHT22;8123;50.906;6.172;2024-03-08T08:09:06;3.80;99.90
16038;DHT22;8123;50.906;6.172;2024-03-08T08:11:40;3.90;99.90
16038;DHT22;8123;50.906;6.172;2024-03-08T08:14:06;4.00;49.10
16038;DHT22;8123;50.906;6.172;2024-03-08T08:16:35;4.40;1.00
16038;DHT22;8123;50.906;6.172;2024-03-08T08:19:02;4.10;1.00
16038;DHT22;8123;50.906;6.172;2024-03-08T08:21:34;4.10;1.00
16038;DHT22;8123;50.906;6.172;2024-03-08T08:23:59;4.20;1.00
16038;DHT22;8123;50.906;6.172;2024-03-08T08:26:25;4.20;1.00
16038;DHT22;8123;50.906;6.172;2024-03-08T08:28:51;4.30;1.00
16038;DHT22;8123;50.906;6.172;2024-03-08T08:31:18;4.30;1.00
16038;DHT22;8123;50.906;6.172;2024-03-08T08:33:44;4.30;1.00
16038;DHT22;8123;50.906;6.172;2024-03-08T08:36:10;4.40;1.00
16038;DHT22;8123;50.906;6.172;2024-03-08T08:38:36;4.40;1.00
16038;DHT22;8123;50.906;6.172;2024-03-08T08:41:01;4.80;1.00
16038;DHT22;8123;50.906;6.172;2024-03-08T08:43:28;4.50;1.00
16038;DHT22;8123;50.906;6.172;2024-03-08T08:45:53;4.70;1.00
16038;DHT22;8123;50.906;6.172;2024-03-08T08:48:20;4.80;1.00
16038;DHT22;8123;50.906;6.172;2024-03-08T08:50:46;4.70;1.00
16038;DHT22;8123;50.906;6.172;2024-03-08T08:53:12;4.80;99.90
16038;DHT22;8123;50.906;6.172;2024-03-08T08:55:40;4.80;1.00
16038;DHT22;8123;50.906;6.172;2024-03-08T08:58:06;4.80;1.00
16038;DHT22;8123;50.906;6.172;2024-03-08T09:00:33;4.80;1.00
16038;DHT22;8123;50.906;6.172;2024-03-08T09:03:00;4.90;1.00
16038;DHT22;8123;50.906;6.172;2024-03-08T09:05:27;5.20;1.00
16038;DHT22;8123;50.906;6.172;2024-03-08T09:07:53;5.00;1.00
16038;DHT22;8123;50.906;6.172;2024-03-08T09:10:19;5.00;1.00
16038;DHT22;8123;50.906;6.172;2024-03-08T09:12:44;5.00;99.90
16038;DHT22;8123;50.906;6.172;2024-03-08T09:15:10;5.10;99.90
16038;DHT22;8123;50.906;6.172;2024-03-08T09:17:42;5.10;1.00
16038;DHT22;8123;50.906;6.172;2024-03-08T09:20:10;5.20;99.90
16038;DHT22;8123;50.906;6.172;2024-03-08T09:22:39;5.20;1.00
16038;DHT22;8123;50.906;6.172;2024-03-08T09:25:06;5.30;1.00
16038;DHT22;8123;50.906;6.172;2024-03-08T09:27:32;5.30;99.90
16038;DHT22;8123;50.906;6.172;2024-03-08T09:29:59;5.40;99.90
16038;DHT22;8123;50.906;6.172;2024-03-08T09:32:25;5.30;99.90
16038;DHT22;8123;50.906;6.172;2024-03-08T09:34:51;5.40;99.90
16038;DHT22;8123;50.906;6.172;2024-03-08T09:37:17;5.50;1.00
16038;DHT22;8123;50.906;6.172;2024-03-08T09:39:44;5.60;99.90
16038;DHT22;8123;50.906;6.172;2024-03-08T09:42:10;5.70;99.90
16038;DHT22;8123;50.906;6.172;2024-03-08T09:44:43;5.70;99.90
16038;DHT22;8123;50.906;6.172;2024-03-08T09:47:11;5.70;99.90
16038;DHT22;8123;50.906;6.172;2024-03-08T09:49:39;5.80;99.90
16038;DHT22;8123;50.906;6.172;2024-03-08T09:52:07;5.90;99.90
16038;DHT22;8123;50.906;6.172;2024-03-08T09:54:33;6.00;99.90
16038;DHT22;8123;50.906;6.172;2024-03-08T09:56:59;6.00;99.90
16038;DHT22;8123;50.906;6.172;2024-03-08T09:59:24;6.00;99.90
16038;DHT22;8123;50.906;6.172;2024-03-08T10:02:15;6.40;99.90
16038;DHT22;8123;50.906;6.172;2024-03-08T10:04:40;6.20;99.90
16038;DHT22;8123;50.906;6.172;2024-03-08T10:07:11;6.20;99.90
16038;DHT22;8123;50.906;6.172;2024-03-08T10:09:38;6.50;99.90
16038;DHT22;8123;50.906;6.172;2024-03-08T10:12:04;6.30;99.90
16038;DHT22;8123;50.906;6.172;2024-03-08T10:14:30;6.40;99.90
16038;DHT22;8123;50.906;6.172;2024-03-08T10:16:57;6.70;99.90
16038;DHT22;8123;50.906;6.172;2024-03-08T10:19:26;6.60;1.00
16038;DHT22;8123;50.906;6.172;2024-03-08T10:21:52;6.70;1.00
16038;DHT22;8123;50.906;6.172;2024-03-08T10:24:23;6.70;1.00
16038;DHT22;8123;50.906;6.172;2024-03-08T10:27:01;6.80;1.00
16038;DHT22;8123;50.906;6.172;2024-03-08T10:29:31;6.90;1.00
16038;DHT22;8123;50.906;6.172;2024-03-08T10:31:56;6.90;1.00
16038;DHT22;8123;50.906;6.172;2024-03-08T10:34:23;7.30;1.00
16038;DHT22;8123;50.906;6.172;2024-03-08T10:36:50;7.00;1.00
16038;DHT22;8123;50.906;6.172;2024-03-08T10:41:44;7.20;1.00
16038;DHT22;8123;50.906;6.172;2024-03-08T10:49:59;7.30;1.00
16038;DHT22;8123;50.906;6.172;2024-03-08T10:52:29;7.40;1.00
16038;DHT22;8123;50.906;6.172;2024-03-08T10:54:57;7.40;1.00
16038;DHT22;8123;50.906;6.172;2024-03-08T10:57:24;7.40;1.00
16038;DHT22;8123;50.906;6.172;2024-03-08T10:59:50;7.50;1.00
16038;DHT22;8123;50.906;6.172;2024-03-08T11:02:17;7.70;1.00
16038;DHT22;8123;50.906;6.172;2024-03-08T11:04:48;7.60;1.00
16038;DHT22;8123;50.906;6.172;2024-03-08T11:07:15;7.90;1.00
16038;DHT22;8123;50.906;6.172;2024-03-08T11:09:42;7.70;1.00
16038;DHT22;8123;50.906;6.172;2024-03-08T11:12:27;7.80;1.00
16038;DHT22;8123;50.906;6.172;2024-03-08T11:15:02;7.80;1.00
16038;DHT22;8123;50.906;6.172;2024-03-08T11:19:58;7.90;1.00
16038;DHT22;8123;50.906;6.172;2024-03-08T11:22:28;7.90;1.00
16038;DHT22;8123;50.906;6.172;2024-03-08T11:25:08;8.00;1.00
16038;DHT22;8123;50.906;6.172;2024-03-08T11:27:38;8.00;99.90
16038;DHT22;8123;50.906;6.172;2024-03-08T11:30:05;8.00;1.00
16038;DHT22;8123;50.906;6.172;2024-03-08T11:32:38;8.10;1.00
16038;DHT22;8123;50.906;6.172;2024-03-08T11:35:08;8.10;99.90
16038;DHT22;8123;50.906;6.172;2024-03-08T11:37:44;8.20;99.90
16038;DHT22;8123;50.906;6.172;2024-03-08T11:40:14;8.20;99.90
16038;DHT22;8123;50.906;6.172;2024-03-08T11:42:48;8.20;99.90
16038;DHT22;8123;50.906;6.172;2024-03-08T11:45:15;8.20;1.00
16038;DHT22;8123;50.906;6.172;2024-03-08T11:47:45;8.50;1.00
16038;DHT22;8123;50.906;6.172;2024-03-08T11:50:14;8.50;1.00
16038;DHT22;8123;50.906;6.172;2024-03-08T11:52:40;8.40;99.90
16038;DHT22;8123;50.906;6.172;2024-03-08T11:55:07;8.40;99.90
16038;DHT22;8123;50.906;6.172;2024-03-08T11:57:33;8.50;99.90
16038;DHT22;8123;50.906;6.172;2024-03-08T11:59:59;8.70;99.90
16038;DHT22;8123;50.906;6.172;2024-03-08T12:02:35;8.60;99.90
16038;DHT22;8123;50.906;6.172;2024-03-08T12:05:06;8.60;99.90
16038;DHT22;8123;50.906;6.172;2024-03-08T12:07:34;8.60;99.90
16038;DHT22;8123;50.906;6.172;2024-03-08T12:10:20;8.70;99.90
16038;DHT22;8123;50.906;6.172;2024-03-08T12:12:52;8.70;99.90
16038;DHT22;8123;50.906;6.172;2024-03-08T12:15:19;8.70;99.90
16038;DHT22;8123;50.906;6.172;2024-03-08T12:17:47;8.80;99.90
16038;DHT22;8123;50.906;6.172;2024-03-08T12:20:31;9.10;99.90
16038;DHT22;8123;50.906;6.172;2024-03-08T12:22:58;9.00;99.90
16038;DHT22;8123;50.906;6.172;2024-03-08T12:25:31;9.10;99.90
16038;DHT22;8123;50.906;6.172;2024-03-08T12:28:11;9.20;99.90
16038;DHT22;8123;50.906;6.172;2024-03-08T12:30:58;9.00;99.90
16038;DHT22;8123;50.906;6.172;2024-03-08T12:33:25;9.10;99.90
16038;DHT22;8123;50.906;6.172;2024-03-08T12:35:56;9.30;99.90
16038;DHT22;8123;50.906;6.172;2024-03-08T12:38:24;9.20;99.90
16038;DHT22;8123;50.906;6.172;2024-03-08T12:40:57;9.30;99.90
16038;DHT22;8123;50.906;6.172;2024-03-08T12:43:23;9.50;99.90
16038;DHT22;8123;50.906;6.172;2024-03-08T12:45:49;9.20;99.90
16038;DHT22;8123;50.906;6.172;2024-03-08T12:48:15;9.30;99.90
16038;DHT22;8123;50.906;6.172;2024-03-08T12:50:41;9.40;99.90
16038;DHT22;8123;50.906;6.172;2024-03-08T12:53:10;9.30;99.90
16038;DHT22;8123;50.906;6.172;2024-03-08T12:55:36;9.40;99.90
16038;DHT22;8123;50.906;6.172;2024-03-08T12:58:02;9.40;99.90
16038;DHT22;8123;50.906;6.172;2024-03-08T13:00:28;9.40;99.90
16038;DHT22;8123;50.906;6.172;2024-03-08T13:02:53;9.40;99.90
16038;DHT22;8123;50.906;6.172;2024-03-08T13:05:20;9.50;99.90
16038;DHT22;8123;50.906;6.172;2024-03-08T13:07:46;9.50;99.90
16038;DHT22;8123;50.906;6.172;2024-03-08T13:10:13;9.60;99.90
16038;DHT22;8123;50.906;6.172;2024-03-08T13:12:43;9.80;99.90
16038;DHT22;8123;50.906;6.172;2024-03-08T13:15:09;9.60;99.90
16038;DHT22;8123;50.906;6.172;2024-03-08T13:17:40;9.70;99.90
16038;DHT22;8123;50.906;6.172;2024-03-08T13:20:07;9.90;99.90
16038;DHT22;8123;50.906;6.172;2024-03-08T13:22:33;9.70;99.90
16038;DHT22;8123;50.906;6.172;2024-03-08T13:24:59;9.80;99.90
16038;DHT22;8123;50.906;6.172;2024-03-08T13:27:27;9.70;99.90
16038;DHT22;8123;50.906;6.172;2024-03-08T13:29:53;9.80;99.90
16038;DHT22;8123;50.906;6.172;2024-03-08T13:32:18;9.90;99.90
16038;DHT22;8123;50.906;6.172;2024-03-08T13:34:46;10.00;99.90
16038;DHT22;8123;50.906;6.172;2024-03-08T13:37:13;9.80;99.90
16038;DHT22;8123;50.906;6.172;2024-03-08T13:39:42;9.80;99.90
16038;DHT22;8123;50.906;6.172;2024-03-08T13:42:15;9.80;99.90
16038;DHT22;8123;50.906;6.172;2024-03-08T13:44:45;9.80;99.90
16038;DHT22;8123;50.906;6.172;2024-03-08T13:47:17;9.90;99.90
16038;DHT22;8123;50.906;6.172;2024-03-08T13:49:43;10.00;99.90
16038;DHT22;8123;50.906;6.172;2024-03-08T13:52:10;10.20;99.90
16038;DHT22;8123;50.906;6.172;2024-03-08T13:54:36;10.00;99.90
16038;DHT22;8123;50.906;6.172;2024-03-08T13:57:04;10.30;99.90
16038;DHT22;8123;50.906;6.172;2024-03-08T13:59:30;10.00;99.90
16038;DHT22;8123;50.906;6.172;2024-03-08T14:01:59;10.10;99.90
16038;DHT22;8123;50.906;6.172;2024-03-08T14:04:25;10.10;99.90
16038;DHT22;8123;50.906;6.172;2024-03-08T14:06:52;10.10;99.90
16038;DHT22;8123;50.906;6.172;2024-03-08T14:09:21;10.30;99.90
16038;DHT22;8123;50.906;6.172;2024-03-08T14:11:52;10.20;90.40
16038;DHT22;8123;50.906;6.172;2024-03-08T14:14:22;10.10;95.40
16038;DHT22;8123;50.906;6.172;2024-03-08T14:16:50;10.10;99.80
16038;DHT22;8123;50.906;6.172;2024-03-08T14:19:20;10.20;80.70
16038;DHT22;8123;50.906;6.172;2024-03-08T14:21:46;10.50;90.40
16038;DHT22;8123;50.906;6.172;2024-03-08T14:24:14;10.30;77.20
16038;DHT22;8123;50.906;6.172;2024-03-08T14:26:41;10.20;95.40
16038;DHT22;8123;50.906;6.172;2024-03-08T14:29:07;10.40;97.70
16038;DHT22;8123;50.906;6.172;2024-03-08T14:31:36;10.50;78.80
16038;DHT22;8123;50.906;6.172;2024-03-08T14:34:02;10.20;56.90
16038;DHT22;8123;50.906;6.172;2024-03-08T14:36:29;10.30;68.30
16038;DHT22;8123;50.906;6.172;2024-03-08T14:38:54;10.40;73.50
16038;DHT22;8123;50.906;6.172;2024-03-08T14:41:20;10.30;71.20
16038;DHT22;8123;50.906;6.172;2024-03-08T14:43:47;10.30;82.70
16038;DHT22;8123;50.906;6.172;2024-03-08T14:46:14;10.40;63.20
16038;DHT22;8123;50.906;6.172;2024-03-08T14:48:46;10.40;62.10
16038;DHT22;8123;50.906;6.172;2024-03-08T14:51:13;10.20;75.20
16038;DHT22;8123;50.906;6.172;2024-03-08T14:53:42;10.50;68.80
16038;DHT22;8123;50.906;6.172;2024-03-08T14:56:11;10.30;26.00
16038;DHT22;8123;50.906;6.172;2024-03-08T14:58:46;10.30;32.90
16038;DHT22;8123;50.906;6.172;2024-03-08T15:01:15;10.30;30.00
16038;DHT22;8123;50.906;6.172;2024-03-08T15:03:41;10.30;32.10
16038;DHT22;8123;50.906;6.172;2024-03-08T15:06:08;10.40;23.40
16038;DHT22;8123;50.906;6.172;2024-03-08T15:08:38;10.20;45.10
16038;DHT22;8123;50.906;6.172;2024-03-08T15:11:06;10.40;41.10
16038;DHT22;8123;50.906;6.172;2024-03-08T15:13:32;10.30;34.10
16038;DHT22;8123;50.906;6.172;2024-03-08T15:16:05;10.30;33.00
16038;DHT22;8123;50.906;6.172;2024-03-08T15:18:32;10.30;13.20
16038;DHT22;8123;50.906;6.172;2024-03-08T15:21:06;10.30;4.30
16038;DHT22;8123;50.906;6.172;2024-03-08T15:23:35;10.20;3.90
16038;DHT22;8123;50.906;6.172;2024-03-08T15:26:02;10.20;18.00
16038;DHT22;8123;50.906;6.172;2024-03-08T15:28:29;10.20;9.30
16038;DHT22;8123;50.906;6.172;2024-03-08T15:31:05;10.30;10.10
16038;DHT22;8123;50.906;6.172;2024-03-08T15:33:36;10.30;4.00
16038;DHT22;8123;50.906;6.172;2024-03-08T15:36:24;10.30;1.00
16038;DHT22;8123;50.906;6.172;2024-03-08T15:38:54;10.20;12.90
16038;DHT22;8123;50.906;6.172;2024-03-08T15:41:19;10.20;8.40
16038;DHT22;8123;50.906;6.172;2024-03-08T15:43:46;10.20;5.50
16038;DHT22;8123;50.906;6.172;2024-03-08T15:46:12;10.10;6.20
16038;DHT22;8123;50.906;6.172;2024-03-08T15:48:39;10.20;17.00
16038;DHT22;8123;50.906;6.172;2024-03-08T15:51:08;10.10;29.70
16038;DHT22;8123;50.906;6.172;2024-03-08T15:53:37;10.00;44.20
16038;DHT22;8123;50.906;6.172;2024-03-08T15:56:06;10.10;37.20
16038;DHT22;8123;50.906;6.172;2024-03-08T15:58:33;10.10;32.00
16038;DHT22;8123;50.906;6.172;2024-03-08T16:01:01;10.10;39.80
16038;DHT22;8123;50.906;6.172;2024-03-08T16:03:27;10.00;85.30
16038;DHT22;8123;50.906;6.172;2024-03-08T16:05:56;10.10;66.60
16038;DHT22;8123;50.906;6.172;2024-03-08T16:08:21;10.00;76.60
16038;DHT22;8123;50.906;6.172;2024-03-08T16:10:49;10.00;56.20
16038;DHT22;8123;50.906;6.172;2024-03-08T16:13:16;9.90;64.70
16038;DHT22;8123;50.906;6.172;2024-03-08T16:15:46;9.90;68.40
16038;DHT22;8123;50.906;6.172;2024-03-08T16:18:12;10.10;52.80